Seaexpressii — HO4619 — position and weather

sailwx.info

Track history (hours):
 
Tides and Currents Weather Stations Pressure Air Temp Water Temp Dewpoint Dewpoint Depression Visibility Wind Speed Wind Dir Waves Ship Positions

Seaexpressii

Last reported at 2014-Sep-17 06:08 UTC. Time now 2014-Sep-18 21:47 UTC.
Position N 26°03' W 079°37'.

Length 37 m; draft 2 m.

Type: Ship. MMSI: 356449000.

Date/timePositionNaut miles runAvg speedWind from/ knotsBaromVisibWave heightAir tempDewpointWater temp
2014-Sep-17 06:08N 26°03' W 079°37'5 9.1
2014-Sep-17 05:33N 26°04' W 079°43'9 9.0
2014-Sep-17 04:33N 26°04' W 079°53'9 9.2
2014-Sep-17 03:33N 26°05' W 080°03'4 3.9
2014-Sep-17 02:29N 26°04' W 080°08'0 0.0
2014-Sep-17 01:29N 26°04' W 080°08'0 0.0
2014-Sep-17 00:32N 26°04' W 080°08'0 0.0
2014-Sep-16 23:32N 26°04' W 080°08'0 0.0
2014-Sep-16 22:33N 26°04' W 080°08'5 5.3
2014-Sep-16 21:33N 26°06' W 080°02'1110.8
2014-Sep-16 20:33N 26°01' W 079°52'1110.7
2014-Sep-16 19:33N 25°58' W 079°40'  
2014-Sep-14 09:16N 25°59' W 079°04'2810.3
2014-Sep-14 06:33N 26°02' W 079°35'10 9.1
2014-Sep-14 05:30N 26°02' W 079°45'9 9.0
2014-Sep-14 04:33N 26°03' W 079°55'9 9.0
2014-Sep-14 03:34N 26°05' W 080°04'3 3.4
2014-Sep-14 02:33N 26°04' W 080°08'0 0.0
2014-Sep-14 01:32N 26°04' W 080°08'19 4.8
2014-Sep-13 21:33N 25°54' W 079°50'1111.2
2014-Sep-13 20:34N 25°48' W 079°39'18 0.4
2014-Sep-12 00:26N 26°04' W 079°30'1010.0
2014-Sep-11 23:26N 26°04' W 079°41'9 9.7
2014-Sep-11 22:33N 26°03' W 079°50'10 9.9
2014-Sep-11 21:34N 26°04' W 080°01'6 5.9
2014-Sep-11 20:34N 26°04' W 080°08'0 0.0
2014-Sep-11 19:28N 26°04' W 080°08'0 0.0
2014-Sep-11 18:31N 26°04' W 080°08'2 2.0
2014-Sep-11 17:33N 26°05' W 080°07'10 9.6
2014-Sep-11 16:33N 26°04' W 079°56'1010.3
2014-Sep-11 15:33N 26°01' W 079°45'1110.8
2014-Sep-11 14:33N 25°56' W 079°34'9 0.2
2014-Sep-09 23:06N 26°05' W 079°31'5 9.4
2014-Sep-09 22:33N 26°05' W 079°37'9 9.3
2014-Sep-09 21:33N 26°05' W 079°47'10 9.8
2014-Sep-09 20:33N 26°05' W 079°58'8 8.2
2014-Sep-09 19:34N 26°04' W 080°07'1 0.9
2014-Sep-09 18:32N 26°04' W 080°08'0 0.0
2014-Sep-09 17:32N 26°04' W 080°08'0 0.0
2014-Sep-09 16:32N 26°04' W 080°08'2 1.6
2014-Sep-09 15:33N 26°05' W 080°07'10 9.8
2014-Sep-09 14:33N 26°03' W 079°56'1111.1
2014-Sep-09 13:33N 25°59' W 079°45'1111.0
2014-Sep-09 12:33N 25°55' W 079°33'1010.5
2014-Sep-09 11:33N 25°53' W 079°22'13 0.3
2014-Sep-07 21:15N 26°05' W 079°27'7 9.5
2014-Sep-07 20:33N 26°05' W 079°34'9 9.0
2014-Sep-07 19:33N 26°05' W 079°44'9 8.8
2014-Sep-07 18:33N 26°05' W 079°54'9 9.2
2014-Sep-07 17:33N 26°05' W 080°04'4 3.4
2014-Sep-07 16:28N 26°04' W 080°08'0 0.0
2014-Sep-07 15:28N 26°04' W 080°08'0 0.0
2014-Sep-07 14:28N 26°04' W 080°08'0 0.0
2014-Sep-07 13:31N 26°04' W 080°08'0 0.1
2014-Sep-07 12:33N 26°04' W 080°08'5 4.5
2014-Sep-07 11:33N 26°04' W 080°03'9 9.1
2014-Sep-07 10:33N 26°02' W 079°53'10 9.8
2014-Sep-07 09:33N 25°59' W 079°43'10 9.9
2014-Sep-07 08:33N 25°56' W 079°32'  
Track history (hours):
 
Tides and Currents Weather Stations Pressure Air Temp Water Temp Dewpoint Dewpoint Depression Visibility Wind Speed Wind Dir Waves Ship Positions

Seaexpressii

Last reported at 2014-Sep-17 06:08 UTC. Time now 2014-Sep-18 21:47 UTC.
Position N 26°03' W 079°37'.

Length 37 m; draft 2 m.

Type: Ship. MMSI: 356449000.

Date/timePositionNaut miles runAvg speedWind from/ knotsBaromVisibWave heightAir tempDewpointWater temp
2014-Sep-17 06:08N 26°03' W 079°37'5 9.1
2014-Sep-17 05:33N 26°04' W 079°43'9 9.0
2014-Sep-17 04:33N 26°04' W 079°53'9 9.2
2014-Sep-17 03:33N 26°05' W 080°03'4 3.9
2014-Sep-17 02:29N 26°04' W 080°08'0 0.0
2014-Sep-17 01:29N 26°04' W 080°08'0 0.0
2014-Sep-17 00:32N 26°04' W 080°08'0 0.0
2014-Sep-16 23:32N 26°04' W 080°08'0 0.0
2014-Sep-16 22:33N 26°04' W 080°08'5 5.3
2014-Sep-16 21:33N 26°06' W 080°02'1110.8
2014-Sep-16 20:33N 26°01' W 079°52'1110.7
2014-Sep-16 19:33N 25°58' W 079°40'  
2014-Sep-14 09:16N 25°59' W 079°04'2810.3
2014-Sep-14 06:33N 26°02' W 079°35'10 9.1
2014-Sep-14 05:30N 26°02' W 079°45'9 9.0
2014-Sep-14 04:33N 26°03' W 079°55'9 9.0
2014-Sep-14 03:34N 26°05' W 080°04'3 3.4
2014-Sep-14 02:33N 26°04' W 080°08'0 0.0
2014-Sep-14 01:32N 26°04' W 080°08'19 4.8
2014-Sep-13 21:33N 25°54' W 079°50'1111.2
2014-Sep-13 20:34N 25°48' W 079°39'18 0.4
2014-Sep-12 00:26N 26°04' W 079°30'1010.0
2014-Sep-11 23:26N 26°04' W 079°41'9 9.7
2014-Sep-11 22:33N 26°03' W 079°50'10 9.9
2014-Sep-11 21:34N 26°04' W 080°01'6 5.9
2014-Sep-11 20:34N 26°04' W 080°08'0 0.0
2014-Sep-11 19:28N 26°04' W 080°08'0 0.0
2014-Sep-11 18:31N 26°04' W 080°08'2 2.0
2014-Sep-11 17:33N 26°05' W 080°07'10 9.6
2014-Sep-11 16:33N 26°04' W 079°56'1010.3
2014-Sep-11 15:33N 26°01' W 079°45'1110.8
2014-Sep-11 14:33N 25°56' W 079°34'9 0.2
2014-Sep-09 23:06N 26°05' W 079°31'5 9.4
2014-Sep-09 22:33N 26°05' W 079°37'9 9.3
2014-Sep-09 21:33N 26°05' W 079°47'10 9.8
2014-Sep-09 20:33N 26°05' W 079°58'8 8.2
2014-Sep-09 19:34N 26°04' W 080°07'1 0.9
2014-Sep-09 18:32N 26°04' W 080°08'0 0.0
2014-Sep-09 17:32N 26°04' W 080°08'0 0.0
2014-Sep-09 16:32N 26°04' W 080°08'2 1.6
2014-Sep-09 15:33N 26°05' W 080°07'10 9.8
2014-Sep-09 14:33N 26°03' W 079°56'1111.1
2014-Sep-09 13:33N 25°59' W 079°45'1111.0
2014-Sep-09 12:33N 25°55' W 079°33'1010.5
2014-Sep-09 11:33N 25°53' W 079°22'13 0.3
2014-Sep-07 21:15N 26°05' W 079°27'7 9.5
2014-Sep-07 20:33N 26°05' W 079°34'9 9.0
2014-Sep-07 19:33N 26°05' W 079°44'9 8.8
2014-Sep-07 18:33N 26°05' W 079°54'9 9.2
2014-Sep-07 17:33N 26°05' W 080°04'4 3.4
2014-Sep-07 16:28N 26°04' W 080°08'0 0.0
2014-Sep-07 15:28N 26°04' W 080°08'0 0.0
2014-Sep-07 14:28N 26°04' W 080°08'0 0.0
2014-Sep-07 13:31N 26°04' W 080°08'0 0.1
2014-Sep-07 12:33N 26°04' W 080°08'5 4.5
2014-Sep-07 11:33N 26°04' W 080°03'9 9.1
2014-Sep-07 10:33N 26°02' W 079°53'10 9.8
2014-Sep-07 09:33N 25°59' W 079°43'10 9.9
2014-Sep-07 08:33N 25°56' W 079°32'  

Dump ship's entire track history